Time;durP1;ratioP1;P1;durP2;ratioP2;P2;SDS_P1;SDS_P2;PMS_P1;PMS_P2;Temp;Humidity;BMP_temperature;BMP_pressure;BME280_temperature;BME280_humidity;BME280_pressure;Samples;Min_cycle;Max_cycle;Signal;HPM_P1;HPM_P2
2022/09/13 00:00:34;;;;;;;0.50;0.50;;;23.20;91.50;;;;;;5060945;28;45501;-72
2022/09/13 00:03:01;;;;;;;0.88;0.50;;;23.20;91.50;;;;;;5060287;28;45526;-71
2022/09/13 00:05:29;;;;;;;1.30;0.70;;;23.20;91.50;;;;;;5061036;28;45463;-71
2022/09/13 00:07:56;;;;;;;0.98;0.77;;;23.20;91.50;;;;;;5060869;28;45387;-71
2022/09/13 00:10:23;;;;;;;0.95;0.70;;;23.20;91.50;;;;;;5058598;28;45491;-71
2022/09/13 00:12:51;;;;;;;0.98;0.80;;;23.20;91.50;;;;;;5058951;28;45360;-71
2022/09/13 00:15:19;;;;;;;0.70;0.70;;;23.20;91.60;;;;;;5061709;28;47022;-71
2022/09/13 00:17:46;;;;;;;1.13;0.70;;;23.20;91.60;;;;;;5060827;28;45344;-71
2022/09/13 00:20:13;;;;;;;0.68;0.65;;;23.20;91.60;;;;;;5060362;28;45371;-72
2022/09/13 00:22:40;;;;;;;1.45;0.90;;;23.20;91.60;;;;;;5059972;28;45369;-72
2022/09/13 00:25:07;;;;;;;3.85;1.00;;;23.20;91.60;;;;;;5060040;28;45310;-72
2022/09/13 00:27:34;;;;;;;1.30;0.65;;;23.20;91.60;;;;;;5060149;28;45569;-71
2022/09/13 00:30:01;;;;;;;1.33;0.90;;;23.20;91.60;;;;;;5060107;28;45291;-71
2022/09/13 00:32:30;;;;;;;1.08;0.88;;;23.20;91.70;;;;;;5064217;28;45434;-71
2022/09/13 00:34:57;;;;;;;1.30;0.80;;;23.20;91.70;;;;;;5060025;28;47515;-71
2022/09/13 00:37:23;;;;;;;0.85;0.60;;;23.20;91.80;;;;;;5060527;28;45555;-71
2022/09/13 00:39:50;;;;;;;0.90;0.60;;;23.20;91.70;;;;;;5060173;28;45499;-71
2022/09/13 00:42:17;;;;;;;0.82;0.60;;;23.20;91.70;;;;;;5060415;28;45271;-71
2022/09/13 00:44:56;;;;;;;1.00;0.60;;;23.20;91.70;;;;;;5060702;28;47073;-71
2022/09/13 00:47:27;;;;;;;0.88;0.68;;;23.20;91.60;;;;;;5060463;28;45350;-72
2022/09/13 00:50:01;;;;;;;1.42;0.70;;;23.20;91.60;;;;;;5061024;28;45380;-71
2022/09/13 00:52:32;;;;;;;1.48;0.73;;;23.20;91.50;;;;;;5062660;28;45431;-72
2022/09/13 00:55:01;;;;;;;0.50;0.50;;;23.20;91.50;;;;;;5064842;28;47707;-72
2022/09/13 00:57:32;;;;;;;0.95;0.60;;;23.20;91.50;;;;;;5059950;28;45483;-71
2022/09/13 01:00:07;;;;;;;1.50;0.60;;;23.20;91.50;;;;;;5061983;28;45642;-71
2022/09/13 01:02:34;;;;;;;0.68;0.50;;;23.20;91.50;;;;;;5057491;28;45381;-72
2022/09/13 01:05:03;;;;;;;0.60;0.50;;;23.20;91.50;;;;;;5064156;28;46599;-72
2022/09/13 01:07:30;;;;;;;0.98;0.60;;;23.20;91.50;;;;;;5064548;28;45540;-71
2022/09/13 01:09:57;;;;;;;2.63;0.68;;;23.20;91.50;;;;;;5063044;28;45402;-72
2022/09/13 01:12:32;;;;;;;0.52;0.50;;;23.20;91.50;;;;;;5063615;28;45885;-71
2022/09/13 01:15:01;;;;;;;0.77;0.70;;;23.20;91.50;;;;;;5063168;28;46671;-71
2022/09/13 01:17:29;;;;;;;1.27;0.70;;;23.20;91.50;;;;;;5061834;28;45420;-71
2022/09/13 01:19:56;;;;;;;0.45;0.45;;;23.20;91.50;;;;;;5060841;28;45487;-71
2022/09/13 01:23:01;;;;;;;0.47;0.47;;;23.20;91.50;;;;;;5064722;28;45726;-71
2022/09/13 01:26:08;;;;;;;0.52;0.50;;;23.20;91.50;;;;;;5069487;28;47354;-71
2022/09/13 01:29:06;;;;;;;0.50;0.50;;;23.20;91.50;;;;;;5056850;28;45381;-71
2022/09/13 01:31:40;;;;;;;0.77;0.60;;;23.20;91.50;;;;;;5059978;28;45510;-71
2022/09/13 01:34:18;;;;;;;0.73;0.60;;;23.20;91.60;;;;;;5062280;28;45451;-72
2022/09/13 01:36:58;;;;;;;0.50;0.50;;;23.10;91.50;;;;;;5060564;28;45269;-71
2022/09/13 01:39:43;;;;;;;0.60;0.50;;;23.20;91.60;;;;;;5063936;28;45419;-72
2022/09/13 01:42:17;;;;;;;0.60;0.60;;;23.10;91.60;;;;;;5062814;28;45306;-71
2022/09/13 01:45:00;;;;;;;0.55;0.50;;;23.10;91.60;;;;;;5063802;28;45279;-71
2022/09/13 01:47:32;;;;;;;1.52;0.52;;;23.10;91.50;;;;;;5053661;28;47353;-71
2022/09/13 01:50:10;;;;;;;0.43;0.43;;;23.10;91.50;;;;;;5055672;28;45506;-71
2022/09/13 01:52:44;;;;;;;0.80;0.60;;;23.20;91.50;;;;;;5057562;28;45501;-71
2022/09/13 01:55:22;;;;;;;0.88;0.70;;;23.10;91.40;;;;;;5064378;28;45532;-71
2022/09/13 01:57:53;;;;;;;0.75;0.60;;;23.10;91.70;;;;;;5072344;28;47171;-71
2022/09/13 02:00:20;;;;;;;0.80;0.60;;;23.10;91.40;;;;;;5059059;28;45637;-71
2022/09/13 02:02:51;;;;;;;0.98;0.73;;;23.10;91.40;;;;;;5063188;28;45380;-71
2022/09/13 02:05:26;;;;;;;0.63;0.50;;;23.10;91.40;;;;;;5063867;28;45445;-72
2022/09/13 02:07:59;;;;;;;0.60;0.60;;;23.20;91.40;;;;;;5060195;28;45546;-71
2022/09/13 02:10:30;;;;;;;0.52;0.52;;;23.10;91.30;;;;;;5061378;28;45564;-71
2022/09/13 02:12:59;;;;;;;0.93;0.60;;;23.10;91.40;;;;;;5062338;28;45348;-71
2022/09/13 02:15:29;;;;;;;0.65;0.60;;;23.10;91.30;;;;;;5062514;28;45337;-71
2022/09/13 02:18:05;;;;;;;1.02;0.60;;;23.10;91.10;;;;;;5058471;28;47014;-71
2022/09/13 02:20:35;;;;;;;1.08;0.60;;;23.10;91.10;;;;;;5051756;28;45370;-72
2022/09/13 02:23:06;;;;;;;0.73;0.60;;;23.10;91.00;;;;;;5061628;28;45396;-71
2022/09/13 02:25:37;;;;;;;0.73;0.70;;;23.10;91.00;;;;;;5061352;28;45579;-72
2022/09/13 02:28:09;;;;;;;0.50;0.50;;;23.10;90.90;;;;;;5062541;28;48001;-71
2022/09/13 02:30:41;;;;;;;0.70;0.40;;;23.10;91.00;;;;;;5063384;28;45550;-71
2022/09/13 02:33:13;;;;;;;0.50;0.50;;;23.10;91.00;;;;;;5063898;28;45307;-71
2022/09/13 02:35:45;;;;;;;0.47;0.47;;;23.10;90.90;;;;;;5060524;28;45496;-71
2022/09/13 02:38:19;;;;;;;0.90;0.60;;;23.10;91.00;;;;;;5062183;28;46747;-72
2022/09/13 02:40:49;;;;;;;0.52;0.52;;;23.10;90.90;;;;;;5061404;28;45405;-71
2022/09/13 02:43:20;;;;;;;0.63;0.60;;;23.10;91.30;;;;;;5059240;28;45486;-71
2022/09/13 02:45:56;;;;;;;0.43;0.40;;;23.10;90.90;;;;;;5056347;28;45410;-71
2022/09/13 02:48:30;;;;;;;0.60;0.60;;;23.10;90.80;;;;;;5062339;28;46283;-71
2022/09/13 02:51:03;;;;;;;0.90;0.60;;;23.10;90.80;;;;;;5060026;28;45500;-71
2022/09/13 02:53:38;;;;;;;0.50;0.50;;;23.10;90.80;;;;;;5059530;28;45351;-71
2022/09/13 02:56:20;;;;;;;0.80;0.50;;;23.10;90.70;;;;;;5059007;28;45420;-71
2022/09/13 02:58:56;;;;;;;0.50;0.50;;;23.10;90.60;;;;;;5061177;28;47648;-72
2022/09/13 03:01:24;;;;;;;0.50;0.50;;;23.10;90.60;;;;;;5059297;28;45324;-72
2022/09/13 03:03:53;;;;;;;0.57;0.57;;;23.10;90.70;;;;;;5057948;28;45416;-71
2022/09/13 03:06:24;;;;;;;0.50;0.50;;;23.10;90.60;;;;;;5062285;28;45390;-71
2022/09/13 03:08:51;;;;;;;0.40;0.40;;;23.10;90.60;;;;;;5061996;28;45433;-71
2022/09/13 03:11:29;;;;;;;0.50;0.50;;;23.10;90.70;;;;;;5059749;28;45297;-73
2022/09/13 03:14:11;;;;;;;0.63;0.57;;;23.10;90.60;;;;;;5062285;28;45421;-72
2022/09/13 03:16:51;;;;;;;0.40;0.30;;;23.10;90.60;;;;;;5052627;28;45524;-71
2022/09/13 03:19:36;;;;;;;0.80;0.60;;;23.10;90.60;;;;;;5060237;28;46581;-71
2022/09/13 03:22:30;;;;;;;0.50;0.45;;;23.10;90.50;;;;;;5067451;28;45410;-71
2022/09/13 03:25:06;;;;;;;0.43;0.43;;;23.10;90.50;;;;;;5062198;28;45348;-71
2022/09/13 03:27:42;;;;;;;0.50;0.40;;;23.10;90.60;;;;;;5060456;28;45337;-71
2022/09/13 03:30:12;;;;;;;0.30;0.30;;;23.10;90.50;;;;;;5061023;28;47040;-71
2022/09/13 03:32:49;;;;;;;0.75;0.57;;;23.10;90.70;;;;;;5059204;28;45509;-71
2022/09/13 03:35:27;;;;;;;0.40;0.40;;;23.10;90.60;;;;;;5054109;28;45215;-71
2022/09/13 03:38:00;;;;;;;0.68;0.43;;;23.10;90.70;;;;;;5061444;28;45421;-72
2022/09/13 03:40:39;;;;;;;0.40;0.40;;;23.10;90.70;;;;;;5059793;28;45390;-71
2022/09/13 03:43:13;;;;;;;0.40;0.40;;;23.10;90.70;;;;;;5060859;28;45534;-71
2022/09/13 03:45:45;;;;;;;0.47;0.47;;;23.10;90.70;;;;;;5062433;28;45274;-71
2022/09/13 03:48:14;;;;;;;1.27;0.50;;;23.10;90.70;;;;;;5060607;28;45513;-71
2022/09/13 03:50:42;;;;;;;0.40;0.40;;;23.10;90.70;;;;;;5061890;28;45492;-72
2022/09/13 03:53:11;;;;;;;0.40;0.35;;;23.10;90.90;;;;;;5060881;28;45732;-71
2022/09/13 03:55:41;;;;;;;0.32;0.30;;;23.10;91.30;;;;;;5062705;28;45285;-71
2022/09/13 03:58:11;;;;;;;0.40;0.40;;;23.10;91.10;;;;;;5062170;28;45677;-71
2022/09/13 04:00:39;;;;;;;0.30;0.30;;;23.10;90.80;;;;;;5059783;28;46443;-71
2022/09/13 04:03:06;;;;;;;0.40;0.40;;;23.10;90.70;;;;;;5059672;28;46294;-71
2022/09/13 04:05:33;;;;;;;0.40;0.40;;;23.10;90.40;;;;;;5055734;28;45326;-71
2022/09/13 04:08:02;;;;;;;0.38;0.30;;;23.10;90.20;;;;;;5057210;28;45551;-71
2022/09/13 04:10:30;;;;;;;1.00;0.50;;;23.10;90.10;;;;;;5044881;28;47253;-71
2022/09/13 04:12:58;;;;;;;0.40;0.40;;;23.10;89.70;;;;;;5060309;28;45324;-72
2022/09/13 04:15:25;;;;;;;0.50;0.47;;;23.10;89.40;;;;;;5061670;28;45558;-72
2022/09/13 04:17:52;;;;;;;0.82;0.47;;;23.10;89.40;;;;;;5061745;28;45375;-72
2022/09/13 04:20:19;;;;;;;0.40;0.40;;;23.10;90.00;;;;;;5061518;28;46071;-72
2022/09/13 04:22:51;;;;;;;0.55;0.55;;;23.20;90.10;;;;;;5059730;28;46235;-72
2022/09/13 04:25:20;;;;;;;0.50;0.45;;;23.20;90.20;;;;;;5061946;28;45464;-72
2022/09/13 04:27:47;;;;;;;0.50;0.50;;;23.20;90.20;;;;;;5060746;28;45390;-72
2022/09/13 04:30:15;;;;;;;0.77;0.47;;;23.20;90.30;;;;;;5062269;28;45414;-71
2022/09/13 04:32:43;;;;;;;1.13;0.55;;;23.20;90.30;;;;;;5062377;28;45686;-71
2022/09/13 04:35:10;;;;;;;0.45;0.45;;;23.20;90.40;;;;;;5064238;28;45466;-72
2022/09/13 04:37:37;;;;;;;0.40;0.40;;;23.20;90.50;;;;;;5061297;28;45414;-72
2022/09/13 04:40:05;;;;;;;0.25;0.25;;;23.20;90.50;;;;;;5062543;28;48077;-72
2022/09/13 04:42:33;;;;;;;0.50;0.50;;;23.20;90.50;;;;;;5064493;28;46199;-72
2022/09/13 04:45:00;;;;;;;0.43;0.32;;;23.20;90.60;;;;;;5064922;28;45481;-72
2022/09/13 04:47:27;;;;;;;0.55;0.50;;;23.20;90.60;;;;;;5065523;28;45441;-72
2022/09/13 04:49:54;;;;;;;0.63;0.50;;;23.20;90.60;;;;;;5064007;28;46595;-72
2022/09/13 04:52:20;;;;;;;0.55;0.40;;;23.20;90.60;;;;;;5058711;28;45549;-72
2022/09/13 04:54:47;;;;;;;0.50;0.50;;;23.20;90.60;;;;;;5064196;28;45431;-72
2022/09/13 04:57:15;;;;;;;0.40;0.40;;;23.20;90.60;;;;;;5065041;28;45467;-72
2022/09/13 04:59:43;;;;;;;0.30;0.30;;;23.20;90.60;;;;;;5064537;28;46582;-73
2022/09/13 05:02:10;;;;;;;0.40;0.40;;;23.20;90.60;;;;;;5063819;28;45420;-72
2022/09/13 05:04:38;;;;;;;2.25;0.60;;;23.20;90.60;;;;;;5064856;28;45708;-71
2022/09/13 05:07:04;;;;;;;0.75;0.38;;;23.20;90.60;;;;;;5064180;28;45507;-72
2022/09/13 05:09:31;;;;;;;0.38;0.38;;;23.20;91.00;;;;;;5063471;28;45498;-71
2022/09/13 05:11:58;;;;;;;1.92;0.40;;;23.20;90.60;;;;;;5063530;28;45487;-72
2022/09/13 05:14:25;;;;;;;0.38;0.38;;;23.30;90.70;;;;;;5063155;28;45411;-71
2022/09/13 05:16:54;;;;;;;0.55;0.32;;;23.20;90.70;;;;;;5065226;28;45463;-72
2022/09/13 05:19:21;;;;;;;0.43;0.40;;;23.20;90.70;;;;;;5061984;28;45399;-72
2022/09/13 05:21:47;;;;;;;0.50;0.50;;;23.20;90.60;;;;;;5064089;28;45314;-72
2022/09/13 05:24:14;;;;;;;0.95;0.47;;;23.20;90.60;;;;;;5062495;28;45364;-71
2022/09/13 05:26:41;;;;;;;0.40;0.32;;;23.20;90.70;;;;;;5065314;28;45313;-72
2022/09/13 05:29:08;;;;;;;0.32;0.30;;;23.20;90.70;;;;;;5062102;28;46385;-73
2022/09/13 05:31:37;;;;;;;0.52;0.50;;;23.30;90.70;;;;;;5061252;28;45597;-72
2022/09/13 05:34:09;;;;;;;0.38;0.38;;;23.20;90.70;;;;;;5057347;28;46247;-72
2022/09/13 05:36:36;;;;;;;0.50;0.50;;;23.30;90.80;;;;;;5063968;28;45370;-71
2022/09/13 05:39:05;;;;;;;0.50;0.40;;;23.20;90.70;;;;;;5063556;28;46076;-71
2022/09/13 05:41:32;;;;;;;0.32;0.30;;;23.20;90.70;;;;;;5059728;28;45269;-72
2022/09/13 05:43:59;;;;;;;0.40;0.40;;;23.20;90.60;;;;;;5063590;28;45381;-72
2022/09/13 05:46:26;;;;;;;1.00;0.45;;;23.20;90.70;;;;;;5063632;28;45567;-72
2022/09/13 05:48:53;;;;;;;0.30;0.30;;;23.20;90.80;;;;;;5062983;28;46399;-72
2022/09/13 05:51:22;;;;;;;0.30;0.30;;;23.20;90.80;;;;;;5063691;28;45325;-72
2022/09/13 05:53:51;;;;;;;0.50;0.40;;;23.20;90.80;;;;;;5064497;28;45262;-72
2022/09/13 05:56:18;;;;;;;0.40;0.40;;;23.20;90.80;;;;;;5063979;28;45443;-72
2022/09/13 05:58:47;;;;;;;0.52;0.47;;;23.20;90.80;;;;;;5063990;28;46439;-71
2022/09/13 06:01:17;;;;;;;0.60;0.60;;;23.20;90.90;;;;;;5063571;28;45950;-72
2022/09/13 06:03:46;;;;;;;0.40;0.40;;;23.20;90.90;;;;;;5064307;28;45335;-72
2022/09/13 06:06:13;;;;;;;0.35;0.35;;;23.20;90.90;;;;;;5063712;28;45475;-72
2022/09/13 06:08:41;;;;;;;0.35;0.35;;;23.20;90.90;;;;;;5061645;28;46374;-72
2022/09/13 06:11:10;;;;;;;0.63;0.43;;;23.20;90.90;;;;;;5052502;28;45373;-72
2022/09/13 06:13:38;;;;;;;0.43;0.40;;;23.20;90.90;;;;;;5059241;28;45602;-72
2022/09/13 06:16:08;;;;;;;0.40;0.40;;;23.20;90.90;;;;;;5062390;28;45261;-72
2022/09/13 06:18:35;;;;;;;0.40;0.40;;;23.20;90.90;;;;;;5062589;28;46539;-72
2022/09/13 06:21:04;;;;;;;0.32;0.32;;;23.30;90.90;;;;;;5062651;28;45415;-72
2022/09/13 06:23:31;;;;;;;0.50;0.50;;;23.20;90.90;;;;;;5056436;28;45286;-72
2022/09/13 06:26:04;;;;;;;0.30;0.30;;;23.20;90.90;;;;;;5063328;28;45693;-72
2022/09/13 06:28:31;;;;;;;0.32;0.32;;;23.20;90.90;;;;;;5062875;28;45430;-71
2022/09/13 06:31:04;;;;;;;0.30;0.30;;;23.20;90.90;;;;;;5061467;28;45397;-72
2022/09/13 06:33:32;;;;;;;0.50;0.50;;;23.20;90.90;;;;;;5062088;28;45403;-71
2022/09/13 06:36:01;;;;;;;0.32;0.32;;;23.20;90.90;;;;;;5061779;28;45585;-72
2022/09/13 06:38:28;;;;;;;0.60;0.47;;;23.20;90.90;;;;;;5055465;28;45487;-72
2022/09/13 06:41:03;;;;;;;0.70;0.47;;;23.20;91.00;;;;;;5062375;28;45358;-71
2022/09/13 06:43:31;;;;;;;0.55;0.52;;;23.30;91.00;;;;;;5055026;28;45413;-71
2022/09/13 06:46:01;;;;;;;0.30;0.30;;;23.20;91.00;;;;;;5067159;28;45653;-71
2022/09/13 06:48:31;;;;;;;0.40;0.25;;;23.20;91.00;;;;;;5059244;28;45492;-72
2022/09/13 06:50:59;;;;;;;0.50;0.50;;;23.30;91.10;;;;;;5060582;28;45496;-72
2022/09/13 06:53:27;;;;;;;0.50;0.50;;;23.20;91.10;;;;;;5062464;28;45407;-72
2022/09/13 06:56:07;;;;;;;0.65;0.55;;;23.20;91.00;;;;;;5062279;28;45310;-71
2022/09/13 06:58:35;;;;;;;0.50;0.50;;;23.20;91.10;;;;;;5055367;28;46544;-72
2022/09/13 07:01:10;;;;;;;0.80;0.50;;;23.30;91.10;;;;;;5061967;28;45319;-72
2022/09/13 07:03:37;;;;;;;0.60;0.60;;;23.20;91.10;;;;;;5063923;28;45312;-71
2022/09/13 07:06:12;;;;;;;1.08;0.57;;;23.20;91.20;;;;;;5068712;28;45423;-72
2022/09/13 07:08:40;;;;;;;0.60;0.47;;;23.20;91.10;;;;;;5055919;28;47051;-72
2022/09/13 07:11:09;;;;;;;0.90;0.52;;;23.20;91.10;;;;;;5061909;28;45411;-71
2022/09/13 07:13:36;;;;;;;1.70;0.73;;;23.20;91.10;;;;;;5061525;28;45422;-72
2022/09/13 07:16:05;;;;;;;0.52;0.43;;;23.20;91.10;;;;;;5062972;28;45582;-71
2022/09/13 07:18:32;;;;;;;0.55;0.40;;;23.20;91.10;;;;;;5062201;28;45309;-71
2022/09/13 07:21:02;;;;;;;0.95;0.63;;;23.20;91.10;;;;;;5058869;28;45400;-71
2022/09/13 07:23:29;;;;;;;0.40;0.40;;;23.30;91.10;;;;;;5059417;28;45418;-71
2022/09/13 07:26:00;;;;;;;1.20;0.85;;;23.20;91.10;;;;;;5061458;28;45514;-71
2022/09/13 07:28:30;;;;;;;0.57;0.52;;;23.30;91.10;;;;;;5054547;28;48184;-71
2022/09/13 07:30:58;;;;;;;0.50;0.50;;;23.20;91.10;;;;;;5062299;28;45366;-71
2022/09/13 07:33:25;;;;;;;0.60;0.50;;;23.20;91.10;;;;;;5062708;28;45350;-72
2022/09/13 07:35:56;;;;;;;0.77;0.50;;;23.20;91.10;;;;;;5057631;28;45333;-73
2022/09/13 07:38:22;;;;;;;0.47;0.40;;;23.20;91.10;;;;;;5065501;28;47573;-71
2022/09/13 07:40:54;;;;;;;0.73;0.50;;;23.20;91.10;;;;;;5060058;28;45370;-72
2022/09/13 07:43:21;;;;;;;0.68;0.45;;;23.30;91.20;;;;;;5058206;28;45613;-71
2022/09/13 07:45:57;;;;;;;1.30;0.65;;;23.20;91.20;;;;;;5062176;28;45401;-72
2022/09/13 07:48:24;;;;;;;0.93;0.43;;;23.20;91.20;;;;;;5059944;28;48161;-71
2022/09/13 07:50:57;;;;;;;1.55;0.50;;;23.30;91.20;;;;;;5061840;28;45349;-71
2022/09/13 07:53:24;;;;;;;0.98;0.60;;;23.20;91.20;;;;;;5061279;28;45471;-72
2022/09/13 07:55:51;;;;;;;0.40;0.30;;;23.30;91.20;;;;;;5066720;28;45419;-71
2022/09/13 07:58:18;;;;;;;0.32;0.32;;;23.20;91.20;;;;;;5062858;28;47050;-72
2022/09/13 08:00:45;;;;;;;1.02;0.60;;;23.30;91.30;;;;;;5066511;28;45401;-72
2022/09/13 08:03:13;;;;;;;0.85;0.40;;;23.20;91.20;;;;;;5064646;28;45457;-72
2022/09/13 08:05:40;;;;;;;0.40;0.40;;;23.20;91.30;;;;;;5069021;28;45324;-71
2022/09/13 08:08:07;;;;;;;0.60;0.50;;;23.20;91.30;;;;;;5066200;28;47512;-72
2022/09/13 08:10:34;;;;;;;0.47;0.47;;;23.20;91.30;;;;;;5068070;28;45437;-72
2022/09/13 08:13:01;;;;;;;0.50;0.50;;;23.20;91.30;;;;;;5066098;28;45365;-72
2022/09/13 08:15:28;;;;;;;0.50;0.50;;;23.20;91.20;;;;;;5066607;28;45592;-72
2022/09/13 08:17:55;;;;;;;0.47;0.47;;;23.20;91.30;;;;;;5055138;28;45791;-72
2022/09/13 08:20:24;;;;;;;0.55;0.50;;;23.20;91.30;;;;;;5047144;28;45654;-71
2022/09/13 08:22:51;;;;;;;0.40;0.40;;;23.20;91.30;;;;;;5065991;28;45204;-72
2022/09/13 08:25:17;;;;;;;1.67;0.50;;;23.20;91.30;;;;;;5067600;28;45318;-71
2022/09/13 08:27:44;;;;;;;0.40;0.40;;;23.20;91.30;;;;;;5071966;28;45250;-73
2022/09/13 08:30:12;;;;;;;0.40;0.38;;;23.20;91.30;;;;;;5069115;28;45476;-72
2022/09/13 08:32:39;;;;;;;0.47;0.47;;;23.30;91.40;;;;;;5067878;28;45424;-71
2022/09/13 08:35:06;;;;;;;0.77;0.50;;;23.30;91.30;;;;;;5064663;28;45606;-71
2022/09/13 08:37:34;;;;;;;0.40;0.40;;;23.30;91.70;;;;;;5066573;28;48286;-72
2022/09/13 08:40:01;;;;;;;0.40;0.40;;;23.20;91.30;;;;;;5067598;28;45579;-71
2022/09/13 08:42:39;;;;;;;0.40;0.40;;;23.30;91.30;;;;;;5066060;28;45386;-71
2022/09/13 08:45:08;;;;;;;1.23;0.40;;;23.30;91.30;;;;;;5069035;28;45513;-73
2022/09/13 08:47:40;;;;;;;0.73;0.50;;;23.30;91.30;;;;;;5065482;28;48054;-71
2022/09/13 08:50:14;;;;;;;0.40;0.40;;;23.30;91.30;;;;;;5064736;28;45384;-72
2022/09/13 08:52:54;;;;;;;0.77;0.40;;;23.30;91.30;;;;;;5066959;28;45466;-72
2022/09/13 08:55:34;;;;;;;0.80;0.50;;;23.30;91.30;;;;;;5067309;28;45676;-72
2022/09/13 08:58:07;;;;;;;1.27;0.45;;;23.20;91.40;;;;;;5067954;28;46164;-71
2022/09/13 09:00:39;;;;;;;1.23;0.50;;;23.30;91.30;;;;;;5065095;28;45509;-71
2022/09/13 09:03:22;;;;;;;0.65;0.60;;;23.20;91.30;;;;;;5067586;28;45600;-73
2022/09/13 09:05:51;;;;;;;0.43;0.43;;;23.30;91.30;;;;;;5063590;28;45373;-71
2022/09/13 09:08:30;;;;;;;0.38;0.38;;;23.30;91.30;;;;;;5065582;28;47234;-70
2022/09/13 09:10:58;;;;;;;24.85;1.88;;;23.30;91.20;;;;;;5063409;28;45259;-71
2022/09/13 09:13:29;;;;;;;18.23;1.98;;;23.30;91.60;;;;;;5063033;28;45396;-69
2022/09/13 09:16:00;;;;;;;15.38;1.65;;;23.40;91.60;;;;;;5063522;28;45437;-69
2022/09/13 09:18:32;;;;;;;7.57;1.00;;;23.30;91.40;;;;;;5061221;28;45407;-69
2022/09/13 09:21:02;;;;;;;11.63;1.20;;;23.30;91.30;;;;;;5063133;28;45439;-70
2022/09/13 09:23:37;;;;;;;4.10;0.93;;;23.30;91.30;;;;;;5063007;28;45488;-71
2022/09/13 09:26:15;;;;;;;4.18;0.68;;;23.30;91.20;;;;;;5055886;28;45396;-71
2022/09/13 09:28:43;;;;;;;3.55;0.70;;;23.30;91.10;;;;;;5060770;28;46547;-70
2022/09/13 09:31:15;;;;;;;6.03;1.05;;;23.30;91.10;;;;;;5060556;28;45328;-70
2022/09/13 09:33:53;;;;;;;8.48;1.20;;;23.30;91.00;;;;;;5064111;28;45338;-71
2022/09/13 09:36:28;;;;;;;3.03;0.70;;;23.30;90.90;;;;;;5067671;28;45451;-70
2022/09/13 09:38:56;;;;;;;1.92;0.65;;;23.30;90.90;;;;;;5058232;28;46090;-71
2022/09/13 09:41:27;;;;;;;5.13;0.68;;;23.30;90.90;;;;;;5062538;28;45510;-71
2022/09/13 09:44:00;;;;;;;1.38;0.60;;;23.30;90.90;;;;;;5059029;28;45258;-72
2022/09/13 09:46:32;;;;;;;1.38;0.55;;;23.30;90.80;;;;;;5055926;28;45239;-70
2022/09/13 09:50:07;;;;;;;1.00;0.50;;;23.30;90.80;;;;;;5058663;28;45455;-70
2022/09/13 09:51:55;;;;;;;0.90;0.55;;;23.30;90.80;;;;;;5057745;28;45317;-72
2022/09/13 09:54:27;;;;;;;2.08;0.68;;;23.40;90.80;;;;;;5068253;28;45372;-70
2022/09/13 09:56:55;;;;;;;3.03;0.68;;;23.30;90.70;;;;;;5062262;28;45558;-71
2022/09/13 09:59:27;;;;;;;1.33;0.50;;;23.40;90.70;;;;;;5063355;28;47087;-70
2022/09/13 10:01:57;;;;;;;1.23;0.52;;;23.30;90.70;;;;;;5061168;28;45546;-71
2022/09/13 10:04:25;;;;;;;2.42;0.60;;;23.40;90.70;;;;;;5060085;28;45418;-70
2022/09/13 10:07:09;;;;;;;1.38;0.50;;;23.40;90.70;;;;;;5061940;28;45474;-70
2022/09/13 10:09:38;;;;;;;0.50;0.50;;;23.40;90.60;;;;;;5051599;28;46426;-71
2022/09/13 10:12:06;;;;;;;1.55;0.75;;;23.40;90.60;;;;;;5063768;28;45451;-70
2022/09/13 10:14:39;;;;;;;1.75;0.70;;;23.40;90.60;;;;;;5061733;28;45341;-71
2022/09/13 10:17:17;;;;;;;2.58;0.70;;;23.40;90.50;;;;;;5058538;28;45542;-70
2022/09/13 10:19:57;;;;;;;0.77;0.60;;;23.40;90.50;;;;;;5058671;28;49127;-71
2022/09/13 10:22:24;;;;;;;1.70;0.60;;;23.50;90.40;;;;;;5060111;28;45466;-70
2022/09/13 10:24:53;;;;;;;0.85;0.63;;;23.40;90.40;;;;;;5061114;28;45360;-70
2022/09/13 10:27:29;;;;;;;1.38;0.50;;;23.40;90.40;;;;;;5063502;28;45754;-70
2022/09/13 10:29:59;;;;;;;1.75;0.60;;;23.50;90.40;;;;;;5062270;28;45306;-70
2022/09/13 10:32:27;;;;;;;0.90;0.75;;;23.50;90.30;;;;;;5062658;28;45514;-71
2022/09/13 10:34:55;;;;;;;3.17;0.95;;;23.50;90.10;;;;;;5059310;28;45450;-71
2022/09/13 10:37:29;;;;;;;1.20;0.68;;;23.50;90.20;;;;;;5062962;28;45412;-71
2022/09/13 10:40:02;;;;;;;1.42;0.80;;;23.50;90.10;;;;;;5057385;28;45422;-71
2022/09/13 10:42:30;;;;;;;2.42;0.60;;;23.50;90.00;;;;;;5054720;28;46016;-70
2022/09/13 10:44:59;;;;;;;0.60;0.60;;;23.50;90.00;;;;;;5062776;28;45729;-71
2022/09/13 10:47:31;;;;;;;1.17;0.90;;;23.50;90.00;;;;;;5056232;28;45365;-70
2022/09/13 10:50:10;;;;;;;1.42;0.73;;;23.50;89.90;;;;;;5061675;28;45617;-71
2022/09/13 10:52:44;;;;;;;3.95;0.88;;;23.50;89.80;;;;;;5055021;28;45393;-71
2022/09/13 10:55:28;;;;;;;2.40;0.77;;;23.60;89.70;;;;;;5060103;28;45356;-71
2022/09/13 10:58:12;;;;;;;1.08;0.60;;;23.50;89.60;;;;;;5056039;28;45357;-70
2022/09/13 11:00:45;;;;;;;2.85;0.70;;;23.60;89.70;;;;;;5052609;28;47734;-71
2022/09/13 11:03:30;;;;;;;0.70;0.70;;;23.60;90.10;;;;;;5058834;28;45506;-71
2022/09/13 11:06:05;;;;;;;1.33;0.63;;;23.60;89.30;;;;;;5062792;28;45386;-71
2022/09/13 11:08:45;;;;;;;1.80;0.80;;;23.50;89.30;;;;;;5060758;28;45415;-71
2022/09/13 11:11:21;;;;;;;0.70;0.50;;;23.50;89.30;;;;;;5061193;28;47970;-71
2022/09/13 11:14:06;;;;;;;1.05;0.73;;;23.50;89.60;;;;;;5044781;28;45443;-72
2022/09/13 11:16:44;;;;;;;0.88;0.68;;;23.60;89.80;;;;;;5056498;28;45379;-71
2022/09/13 11:19:37;;;;;;;0.50;0.50;;;23.50;89.70;;;;;;5062745;28;45421;-71
2022/09/13 11:22:39;;;;;;;0.50;0.40;;;23.50;89.60;;;;;;5061272;28;46983;-71
2022/09/13 11:25:27;;;;;;;1.55;0.70;;;23.50;89.70;;;;;;5061941;28;45346;-71
2022/09/13 11:28:08;;;;;;;0.95;0.60;;;23.60;89.60;;;;;;5061005;28;45401;-71
2022/09/13 11:30:45;;;;;;;1.10;0.50;;;23.60;89.60;;;;;;5054128;28;45435;-71
2022/09/13 11:33:23;;;;;;;0.75;0.60;;;23.60;89.40;;;;;;5058545;28;48647;-71
2022/09/13 11:36:04;;;;;;;1.05;0.70;;;23.60;90.10;;;;;;5057161;28;46109;-73
2022/09/13 11:38:41;;;;;;;1.73;0.60;;;23.60;89.10;;;;;;5052006;28;45448;-71
2022/09/13 11:41:27;;;;;;;1.00;0.80;;;23.60;89.10;;;;;;5057469;28;45484;-71
2022/09/13 11:44:17;;;;;;;0.82;0.50;;;23.60;89.20;;;;;;5058578;28;45732;-71
2022/09/13 11:46:51;;;;;;;1.58;0.55;;;23.60;89.10;;;;;;5060163;28;45369;-71
2022/09/13 11:49:57;;;;;;;0.68;0.55;;;23.60;89.10;;;;;;5061337;28;45379;-71
2022/09/13 11:52:33;;;;;;;0.52;0.52;;;23.60;89.00;;;;;;5060202;28;45384;-71
2022/09/13 11:55:11;;;;;;;1.35;0.63;;;23.60;89.10;;;;;;5060015;28;46401;-70
2022/09/13 11:57:43;;;;;;;1.48;0.55;;;23.60;89.20;;;;;;5059125;28;45292;-71
2022/09/13 12:00:20;;;;;;;0.98;0.55;;;23.60;89.20;;;;;;5062197;28;45413;-71
2022/09/13 12:02:57;;;;;;;2.80;0.80;;;23.60;89.20;;;;;;5052923;28;45422;-71
2022/09/13 12:05:28;;;;;;;2.20;0.82;;;23.60;89.20;;;;;;5064928;28;45330;-71
2022/09/13 12:07:58;;;;;;;1.98;0.80;;;23.60;89.40;;;;;;5061098;28;45345;-71
2022/09/13 12:10:29;;;;;;;1.50;0.60;;;23.60;89.40;;;;;;5062994;28;45339;-71
2022/09/13 12:13:00;;;;;;;0.50;0.50;;;23.60;89.30;;;;;;5060672;28;45353;-71
2022/09/13 12:15:35;;;;;;;1.75;0.70;;;23.60;89.40;;;;;;5054054;28;45526;-70
2022/09/13 12:18:06;;;;;;;1.65;0.90;;;23.60;89.50;;;;;;5049584;28;45342;-71
2022/09/13 12:20:38;;;;;;;0.80;0.57;;;23.60;89.40;;;;;;5062216;28;45372;-71
2022/09/13 12:23:10;;;;;;;3.78;0.50;;;23.60;89.60;;;;;;5061261;28;45393;-71
2022/09/13 12:25:43;;;;;;;0.50;0.40;;;23.50;89.60;;;;;;5063971;28;45632;-71
2022/09/13 12:28:19;;;;;;;0.93;0.70;;;23.60;89.70;;;;;;5074791;28;45211;-71
2022/09/13 12:30:52;;;;;;;0.77;0.60;;;23.50;89.60;;;;;;5060483;28;45388;-71
2022/09/13 12:33:20;;;;;;;0.63;0.50;;;23.50;89.60;;;;;;5058689;28;45642;-71
2022/09/13 12:36:00;;;;;;;0.52;0.50;;;23.50;89.60;;;;;;5061720;28;47923;-70
2022/09/13 12:39:02;;;;;;;1.45;0.47;;;23.50;89.50;;;;;;5061439;28;45254;-71
2022/09/13 12:41:46;;;;;;;0.50;0.50;;;23.50;89.60;;;;;;5035249;28;45736;-70
2022/09/13 12:44:29;;;;;;;1.00;0.60;;;23.50;89.50;;;;;;5059873;28;45442;-71
2022/09/13 12:47:40;;;;;;;0.35;0.30;;;23.50;89.80;;;;;;5064670;28;45353;-70
2022/09/13 12:50:37;;;;;;;0.70;0.70;;;23.50;90.00;;;;;;5064564;28;46189;-71
2022/09/13 12:53:19;;;;;;;1.25;0.60;;;23.50;90.00;;;;;;5060722;28;45328;-70
2022/09/13 12:56:00;;;;;;;15.77;1.33;;;23.60;91.40;;;;;;5064609;28;45386;-71
2022/09/13 12:58:57;;;;;;;2.50;0.85;;;23.70;92.10;;;;;;5062516;28;47916;-73
2022/09/13 13:01:25;;;;;;;0.70;0.70;;;23.70;92.30;;;;;;5064751;28;45471;-72
2022/09/13 13:03:55;;;;;;;5.28;1.00;;;23.80;91.80;;;;;;5065086;28;45446;-74
2022/09/13 13:06:35;;;;;;;1.70;0.60;;;24.00;91.90;;;;;;5064310;28;45394;-73
2022/09/13 13:09:07;;;;;;;1.80;0.70;;;24.20;91.80;;;;;;5064626;28;47957;-73
2022/09/13 13:11:48;;;;;;;0.93;0.65;;;24.30;91.70;;;;;;5062302;28;45352;-73